Bonassola — IWEE — position and weather

sailwx.info

Track history (hours):
 
Tides and Currents Weather Stations Pressure Air Temp Water Temp Dewpoint Dewpoint Depression Visibility Wind Speed Wind Dir Waves Ship Positions

Bonassola

Last reported at 2016-Aug-28 16:30 UTC. Time now 2016-Aug-28 16:45 UTC.
Position N 44°25' E 008°55'.

Length 60 m; draft 4 m.

Type: Pollution control. MMSI: 247159000.

Date/timePositionNaut miles runAvg speedWind from/ knotsBaromVisibWave heightAir tempDewpointWater temp
2016-Aug-28 16:30N 44°25' E 008°55'0 0.0
2016-Aug-28 15:33N 44°25' E 008°55'0 0.0
2016-Aug-28 14:33N 44°25' E 008°55'0 0.0
2016-Aug-28 13:33N 44°25' E 008°55'0 0.0
2016-Aug-28 12:33N 44°25' E 008°55'0 0.0
2016-Aug-28 11:33N 44°25' E 008°55'0 0.0
2016-Aug-28 10:30N 44°25' E 008°55'0 0.0
2016-Aug-28 09:30N 44°25' E 008°55'0 0.0
2016-Aug-28 08:30N 44°25' E 008°55'0 0.0
2016-Aug-28 07:30N 44°25' E 008°55'0 0.0
2016-Aug-28 06:30N 44°25' E 008°55'0 0.0
2016-Aug-28 05:30N 44°25' E 008°55'0 0.0
2016-Aug-28 04:30N 44°25' E 008°55'0 0.0
2016-Aug-28 03:30N 44°25' E 008°55'0 0.0
2016-Aug-28 02:33N 44°25' E 008°55'0 0.0
2016-Aug-28 01:33N 44°25' E 008°55'0 0.0
2016-Aug-28 00:33N 44°25' E 008°55'0 0.0
2016-Aug-27 23:33N 44°25' E 008°55'0 0.0
2016-Aug-27 22:33N 44°25' E 008°55'0 0.0
2016-Aug-27 21:33N 44°25' E 008°55'0 0.0
2016-Aug-27 20:33N 44°25' E 008°55'0 0.0
2016-Aug-27 19:33N 44°25' E 008°55'0 0.0
2016-Aug-27 18:27N 44°25' E 008°55'0 0.0
2016-Aug-27 17:33N 44°25' E 008°55'0 0.0
2016-Aug-27 16:30N 44°25' E 008°55'0 0.0
2016-Aug-27 15:33N 44°25' E 008°55'0 0.0
2016-Aug-27 14:33N 44°25' E 008°55'6 6.0
2016-Aug-27 13:33N 44°22' E 009°03'5 5.1
2016-Aug-27 12:33N 44°19' E 009°08'5 4.8
2016-Aug-27 11:33N 44°17' E 009°14'7 7.3
2016-Aug-27 10:33N 44°15' E 009°24'5 5.1
2016-Aug-27 09:33N 44°17' E 009°18'8 7.9
2016-Aug-27 08:33N 44°17' E 009°07'8 8.0
2016-Aug-27 07:33N 44°23' E 008°59'3 3.0
2016-Aug-27 06:28N 44°25' E 008°55'0 0.0
2016-Aug-27 04:31N 44°25' E 008°55'0 0.0
2016-Aug-27 03:31N 44°25' E 008°55'0 0.0
2016-Aug-27 02:31N 44°25' E 008°55'0 0.0
2016-Aug-27 01:31N 44°25' E 008°55'0 0.0
2016-Aug-27 00:31N 44°25' E 008°55'0 0.0
2016-Aug-26 23:31N 44°25' E 008°55'0 0.0
2016-Aug-26 22:31N 44°25' E 008°55'0 0.0
2016-Aug-26 21:28N 44°25' E 008°55'0 0.0
2016-Aug-26 20:28N 44°25' E 008°55'0 0.0
2016-Aug-26 19:31N 44°25' E 008°55'0 0.0
2016-Aug-26 18:31N 44°25' E 008°55'0 0.0
2016-Aug-26 17:31N 44°25' E 008°55'0 0.0
2016-Aug-26 16:28N 44°25' E 008°55'0 0.0
2016-Aug-26 15:31N 44°25' E 008°55'0 0.0
2016-Aug-26 14:31N 44°25' E 008°55'0 0.0
2016-Aug-26 13:31N 44°25' E 008°55'0 0.0
2016-Aug-26 12:31N 44°25' E 008°55'0 0.0
2016-Aug-26 11:31N 44°25' E 008°55'0 0.0
2016-Aug-26 10:31N 44°25' E 008°55'0 0.0
2016-Aug-26 09:31N 44°25' E 008°55'0 0.0
2016-Aug-26 08:31N 44°25' E 008°55'0 0.0
2016-Aug-26 07:32N 44°25' E 008°55'0 0.0
2016-Aug-26 06:32N 44°25' E 008°55'0 0.0
2016-Aug-26 04:32N 44°25' E 008°55'0 0.0
2016-Aug-26 03:26N 44°25' E 008°55'0 0.0
2016-Aug-26 02:26N 44°25' E 008°55'0 0.0
2016-Aug-26 01:29N 44°25' E 008°55'0 0.0
2016-Aug-26 00:29N 44°25' E 008°55'0 0.0
2016-Aug-25 23:32N 44°25' E 008°55'0 0.0
2016-Aug-25 22:29N 44°25' E 008°55'0 0.0
2016-Aug-25 21:32N 44°25' E 008°55'0 0.0
2016-Aug-25 20:32N 44°25' E 008°55'0 0.0
2016-Aug-25 19:32N 44°25' E 008°55'0 0.0
2016-Aug-25 18:32N 44°25' E 008°55'0 0.0
2016-Aug-25 17:32N 44°25' E 008°55'0 0.0
2016-Aug-25 16:32N 44°25' E 008°55'0 0.0
2016-Aug-25 15:32N 44°25' E 008°55'0 0.0
2016-Aug-25 14:32N 44°25' E 008°55'0 0.0
2016-Aug-25 13:08N 44°25' E 008°55'0 0.0
2016-Aug-25 12:29N 44°25' E 008°55'0 0.0
2016-Aug-25 11:32N 44°25' E 008°55'0 0.0
2016-Aug-25 10:32N 44°25' E 008°55'0 0.0
2016-Aug-25 09:32N 44°25' E 008°55'0 0.0
2016-Aug-25 08:32N 44°25' E 008°55'0 0.0
2016-Aug-25 07:26N 44°25' E 008°55'0 0.0
2016-Aug-25 06:32N 44°25' E 008°55'0 0.0
2016-Aug-25 04:32N 44°25' E 008°55'0 0.0
2016-Aug-25 03:32N 44°25' E 008°55'0 0.0
2016-Aug-25 02:32N 44°25' E 008°55'0 0.0
2016-Aug-25 01:32N 44°25' E 008°55'0 0.0
2016-Aug-25 00:32N 44°25' E 008°55'0 0.0
2016-Aug-24 23:32N 44°25' E 008°55'0 0.0
2016-Aug-24 22:32N 44°25' E 008°55'0 0.0
2016-Aug-24 21:32N 44°25' E 008°55'0 0.0
2016-Aug-24 20:26N 44°25' E 008°55'0 0.0
2016-Aug-24 19:32N 44°25' E 008°55'0 0.0
2016-Aug-24 18:32N 44°25' E 008°55'0 0.0
2016-Aug-24 17:32N 44°25' E 008°55'0 0.0
2016-Aug-24 16:32N 44°25' E 008°55'0 0.0
2016-Aug-24 15:32N 44°25' E 008°55'0 0.0
2016-Aug-24 14:32N 44°25' E 008°55'0 0.0
2016-Aug-24 13:29N 44°25' E 008°55'0 0.0
2016-Aug-24 12:32N 44°25' E 008°55'0 0.0
2016-Aug-24 11:32N 44°25' E 008°55'0 0.0
2016-Aug-24 10:23N 44°25' E 008°55'0 0.0
2016-Aug-24 09:26N 44°25' E 008°55'0 0.0
2016-Aug-24 08:26N 44°25' E 008°55'0 0.0
2016-Aug-24 07:32N 44°25' E 008°55'0 0.0
2016-Aug-24 06:32N 44°25' E 008°55'0 0.0
2016-Aug-24 04:32N 44°25' E 008°55'0 0.0
2016-Aug-24 03:29N 44°25' E 008°55'0 0.0
2016-Aug-24 02:32N 44°25' E 008°55'0 0.0
2016-Aug-24 01:32N 44°25' E 008°55'0 0.0
2016-Aug-24 00:32N 44°25' E 008°55'0 0.0
2016-Aug-23 23:32N 44°25' E 008°55'0 0.0
2016-Aug-23 22:32N 44°25' E 008°55'0 0.0
2016-Aug-23 21:32N 44°25' E 008°55'0 0.0
2016-Aug-23 20:32N 44°25' E 008°55'0 0.0
2016-Aug-23 19:26N 44°25' E 008°55'0 0.0
2016-Aug-23 18:32N 44°25' E 008°55'0 0.0
2016-Aug-23 17:32N 44°25' E 008°55'0 0.0
2016-Aug-23 16:32N 44°25' E 008°55'0 0.0
2016-Aug-23 15:29N 44°25' E 008°55'0 0.0
2016-Aug-23 14:29N 44°25' E 008°55'0 0.0
2016-Aug-23 13:29N 44°25' E 008°55'0 0.0
2016-Aug-23 12:32N 44°25' E 008°55'0 0.0
2016-Aug-23 11:32N 44°25' E 008°55'0 0.0
2016-Aug-23 10:32N 44°25' E 008°55'0 0.0
2016-Aug-23 09:32N 44°25' E 008°55'0 0.0
2016-Aug-23 08:32N 44°25' E 008°55'0 0.0
2016-Aug-23 07:32N 44°25' E 008°55'0 0.0
2016-Aug-23 06:32N 44°25' E 008°55'0 0.0
2016-Aug-23 05:23N 44°25' E 008°55'0 0.0
2016-Aug-23 04:29N 44°25' E 008°55'0 0.0
2016-Aug-23 03:29N 44°25' E 008°55'0 0.0
2016-Aug-23 02:29N 44°25' E 008°55'0 0.0
2016-Aug-23 01:29N 44°25' E 008°55'0 0.0
2016-Aug-23 00:29N 44°25' E 008°55'0 0.0
2016-Aug-22 23:32N 44°25' E 008°55'0 0.0
2016-Aug-22 22:32N 44°25' E 008°55'0 0.0
2016-Aug-22 21:32N 44°25' E 008°55'0 0.0
2016-Aug-22 20:32N 44°25' E 008°55'0 0.0
2016-Aug-22 19:32N 44°25' E 008°55'0 0.0
2016-Aug-22 18:32N 44°25' E 008°55'0 0.0
2016-Aug-22 17:32N 44°25' E 008°55'0 0.0
2016-Aug-22 16:32N 44°25' E 008°55'0 0.0
2016-Aug-22 15:26N 44°25' E 008°55'0 0.0
2016-Aug-22 14:23N 44°25' E 008°55'0 0.0
2016-Aug-22 13:26N 44°25' E 008°55'0 0.0
2016-Aug-22 12:26N 44°25' E 008°55'0 0.0
2016-Aug-22 11:29N 44°25' E 008°55'0 0.0
2016-Aug-22 10:32N 44°25' E 008°55'0 0.0
2016-Aug-22 09:31N 44°25' E 008°55'0 0.0
2016-Aug-22 08:31N 44°25' E 008°55'0 0.0
2016-Aug-22 07:31N 44°25' E 008°55'0 0.0
2016-Aug-22 06:31N 44°25' E 008°55'0 0.0
2016-Aug-22 05:31N 44°25' E 008°55'0 0.0
2016-Aug-22 04:22N 44°25' E 008°55'0 0.0
2016-Aug-22 03:28N 44°25' E 008°55'0 0.0
2016-Aug-22 02:25N 44°25' E 008°55'0 0.0
2016-Aug-22 01:28N 44°25' E 008°55'0 0.0
2016-Aug-22 00:31N 44°25' E 008°55'0 0.0
2016-Aug-21 23:28N 44°25' E 008°55'0 0.0
2016-Aug-21 22:28N 44°25' E 008°55'0 0.0
2016-Aug-21 21:31N 44°25' E 008°55'0 0.0
2016-Aug-21 20:31N 44°25' E 008°55'0 0.0
2016-Aug-21 19:31N 44°25' E 008°55'0 0.0
2016-Aug-21 18:31N 44°25' E 008°55'0 0.0
2016-Aug-21 17:31N 44°25' E 008°55'0 0.0
2016-Aug-21 16:22N 44°25' E 008°55'0 0.0
2016-Aug-21 15:31N 44°25' E 008°55'0 0.4
2016-Aug-21 14:33N 44°24' E 008°55'5 5.3
2016-Aug-21 13:33N 44°23' E 009°02'5 5.2
2016-Aug-21 12:33N 44°18' E 009°06'7 6.8
2016-Aug-21 11:33N 44°15' E 009°14'5 5.1
2016-Aug-21 10:33N 44°16' E 009°21'6 5.8
2016-Aug-21 09:33N 44°15' E 009°13'7 6.7
2016-Aug-21 08:33N 44°19' E 009°05'6 6.3
2016-Aug-21 07:33N 44°23' E 008°59'3 2.7
2016-Aug-21 06:30N 44°25' E 008°55'0 0.0
2016-Aug-21 05:27N 44°25' E 008°55'0 0.0
2016-Aug-21 04:30N 44°25' E 008°55'0 0.0
2016-Aug-21 03:30N 44°25' E 008°55'0 0.0
2016-Aug-21 02:30N 44°25' E 008°55'0 0.0
2016-Aug-21 01:33N 44°25' E 008°55'0 0.0
2016-Aug-21 00:33N 44°25' E 008°55'0 0.0
2016-Aug-20 23:33N 44°25' E 008°55'0 0.0
2016-Aug-20 22:33N 44°25' E 008°55'0 0.0
2016-Aug-20 21:33N 44°25' E 008°55'0 0.0
2016-Aug-20 20:30N 44°25' E 008°55'0 0.0
2016-Aug-20 19:30N 44°25' E 008°55'0 0.0
2016-Aug-20 18:24N 44°25' E 008°55'0 0.0
2016-Aug-20 17:30N 44°25' E 008°55'0 0.0
2016-Aug-20 16:30N 44°25' E 008°55'0 0.0
2016-Aug-20 15:27N 44°25' E 008°55'0 0.0
2016-Aug-20 14:30N 44°25' E 008°55'0 0.0
2016-Aug-20 13:30N 44°25' E 008°55'0 0.0
2016-Aug-20 12:30N 44°25' E 008°55'0 0.0
2016-Aug-20 11:33N 44°25' E 008°55'0 0.0
2016-Aug-20 10:33N 44°25' E 008°55'0 0.0
2016-Aug-20 09:33N 44°25' E 008°55'0 0.0
2016-Aug-20 08:33N 44°25' E 008°55'0 0.0
2016-Aug-20 07:33N 44°25' E 008°55'0 0.0
2016-Aug-20 06:33N 44°25' E 008°55'0 0.0
2016-Aug-20 05:33N 44°25' E 008°55'0 0.0
2016-Aug-20 04:33N 44°25' E 008°55'0 0.0
2016-Aug-20 03:30N 44°25' E 008°55'0 0.0
2016-Aug-20 02:27N 44°25' E 008°55'0 0.0
2016-Aug-20 01:30N 44°25' E 008°55'0 0.0
2016-Aug-20 00:27N 44°25' E 008°55'0 0.0
2016-Aug-19 23:30N 44°25' E 008°55'0 0.0
2016-Aug-19 22:30N 44°25' E 008°55'0 0.0
2016-Aug-19 21:30N 44°25' E 008°55'0 0.0
2016-Aug-19 20:33N 44°25' E 008°55'0 0.0
2016-Aug-19 19:33N 44°25' E 008°55'0 0.0
2016-Aug-19 18:33N 44°25' E 008°55'0 0.0
2016-Aug-19 17:33N 44°25' E 008°55'0 0.0
2016-Aug-19 16:33N 44°25' E 008°55'0 0.0
2016-Aug-19 15:33N 44°25' E 008°55'0 0.0
2016-Aug-19 14:30N 44°25' E 008°55'0 0.0
2016-Aug-19 13:30N 44°25' E 008°55'0 0.0
2016-Aug-19 12:33N 44°25' E 008°55'0 0.0
2016-Aug-19 11:30N 44°25' E 008°55'0 0.0
2016-Aug-19 10:33N 44°25' E 008°55'0 0.0
2016-Aug-19 09:21N 44°25' E 008°55'0 0.0
2016-Aug-19 08:33N 44°25' E 008°55'0 0.0
2016-Aug-19 07:33N 44°25' E 008°55'0 0.0
2016-Aug-19 06:33N 44°25' E 008°55'0 0.0
2016-Aug-19 04:24N 44°25' E 008°55'0 0.0
2016-Aug-19 03:27N 44°25' E 008°55'0 0.0
2016-Aug-19 02:27N 44°25' E 008°55'0 0.0
2016-Aug-19 01:30N 44°25' E 008°55'0 0.0
2016-Aug-19 00:30N 44°25' E 008°55'0 0.0
2016-Aug-18 23:30N 44°25' E 008°55'0 0.0
2016-Aug-18 22:33N 44°25' E 008°55'0 0.0
2016-Aug-18 21:33N 44°25' E 008°55'0 0.0
2016-Aug-18 20:33N 44°25' E 008°55'0 0.0
2016-Aug-18 19:33N 44°25' E 008°55'0 0.0
2016-Aug-18 18:33N 44°25' E 008°55'0 0.0
2016-Aug-18 17:24N 44°25' E 008°55'0 0.0
2016-Aug-18 16:33N 44°25' E 008°55'  
Track history (hours):
 
Tides and Currents Weather Stations Pressure Air Temp Water Temp Dewpoint Dewpoint Depression Visibility Wind Speed Wind Dir Waves Ship Positions

Bonassola

Last reported at 2016-Aug-28 16:30 UTC. Time now 2016-Aug-28 16:45 UTC.
Position N 44°25' E 008°55'.

Length 60 m; draft 4 m.

Type: Pollution control. MMSI: 247159000.

Date/timePositionNaut miles runAvg speedWind from/ knotsBaromVisibWave heightAir tempDewpointWater temp
2016-Aug-28 16:30N 44°25' E 008°55'0 0.0
2016-Aug-28 15:33N 44°25' E 008°55'0 0.0
2016-Aug-28 14:33N 44°25' E 008°55'0 0.0
2016-Aug-28 13:33N 44°25' E 008°55'0 0.0
2016-Aug-28 12:33N 44°25' E 008°55'0 0.0
2016-Aug-28 11:33N 44°25' E 008°55'0 0.0
2016-Aug-28 10:30N 44°25' E 008°55'0 0.0
2016-Aug-28 09:30N 44°25' E 008°55'0 0.0
2016-Aug-28 08:30N 44°25' E 008°55'0 0.0
2016-Aug-28 07:30N 44°25' E 008°55'0 0.0
2016-Aug-28 06:30N 44°25' E 008°55'0 0.0
2016-Aug-28 05:30N 44°25' E 008°55'0 0.0
2016-Aug-28 04:30N 44°25' E 008°55'0 0.0
2016-Aug-28 03:30N 44°25' E 008°55'0 0.0
2016-Aug-28 02:33N 44°25' E 008°55'0 0.0
2016-Aug-28 01:33N 44°25' E 008°55'0 0.0
2016-Aug-28 00:33N 44°25' E 008°55'0 0.0
2016-Aug-27 23:33N 44°25' E 008°55'0 0.0
2016-Aug-27 22:33N 44°25' E 008°55'0 0.0
2016-Aug-27 21:33N 44°25' E 008°55'0 0.0
2016-Aug-27 20:33N 44°25' E 008°55'0 0.0
2016-Aug-27 19:33N 44°25' E 008°55'0 0.0
2016-Aug-27 18:27N 44°25' E 008°55'0 0.0
2016-Aug-27 17:33N 44°25' E 008°55'0 0.0
2016-Aug-27 16:30N 44°25' E 008°55'0 0.0
2016-Aug-27 15:33N 44°25' E 008°55'0 0.0
2016-Aug-27 14:33N 44°25' E 008°55'6 6.0
2016-Aug-27 13:33N 44°22' E 009°03'5 5.1
2016-Aug-27 12:33N 44°19' E 009°08'5 4.8
2016-Aug-27 11:33N 44°17' E 009°14'7 7.3
2016-Aug-27 10:33N 44°15' E 009°24'5 5.1
2016-Aug-27 09:33N 44°17' E 009°18'8 7.9
2016-Aug-27 08:33N 44°17' E 009°07'8 8.0
2016-Aug-27 07:33N 44°23' E 008°59'3 3.0
2016-Aug-27 06:28N 44°25' E 008°55'0 0.0
2016-Aug-27 04:31N 44°25' E 008°55'0 0.0
2016-Aug-27 03:31N 44°25' E 008°55'0 0.0
2016-Aug-27 02:31N 44°25' E 008°55'0 0.0
2016-Aug-27 01:31N 44°25' E 008°55'0 0.0
2016-Aug-27 00:31N 44°25' E 008°55'0 0.0
2016-Aug-26 23:31N 44°25' E 008°55'0 0.0
2016-Aug-26 22:31N 44°25' E 008°55'0 0.0
2016-Aug-26 21:28N 44°25' E 008°55'0 0.0
2016-Aug-26 20:28N 44°25' E 008°55'0 0.0
2016-Aug-26 19:31N 44°25' E 008°55'0 0.0
2016-Aug-26 18:31N 44°25' E 008°55'0 0.0
2016-Aug-26 17:31N 44°25' E 008°55'0 0.0
2016-Aug-26 16:28N 44°25' E 008°55'0 0.0
2016-Aug-26 15:31N 44°25' E 008°55'0 0.0
2016-Aug-26 14:31N 44°25' E 008°55'0 0.0
2016-Aug-26 13:31N 44°25' E 008°55'0 0.0
2016-Aug-26 12:31N 44°25' E 008°55'0 0.0
2016-Aug-26 11:31N 44°25' E 008°55'0 0.0
2016-Aug-26 10:31N 44°25' E 008°55'0 0.0
2016-Aug-26 09:31N 44°25' E 008°55'0 0.0
2016-Aug-26 08:31N 44°25' E 008°55'0 0.0
2016-Aug-26 07:32N 44°25' E 008°55'0 0.0
2016-Aug-26 06:32N 44°25' E 008°55'0 0.0
2016-Aug-26 04:32N 44°25' E 008°55'0 0.0
2016-Aug-26 03:26N 44°25' E 008°55'0 0.0
2016-Aug-26 02:26N 44°25' E 008°55'0 0.0
2016-Aug-26 01:29N 44°25' E 008°55'0 0.0
2016-Aug-26 00:29N 44°25' E 008°55'0 0.0
2016-Aug-25 23:32N 44°25' E 008°55'0 0.0
2016-Aug-25 22:29N 44°25' E 008°55'0 0.0
2016-Aug-25 21:32N 44°25' E 008°55'0 0.0
2016-Aug-25 20:32N 44°25' E 008°55'0 0.0
2016-Aug-25 19:32N 44°25' E 008°55'0 0.0
2016-Aug-25 18:32N 44°25' E 008°55'0 0.0
2016-Aug-25 17:32N 44°25' E 008°55'0 0.0
2016-Aug-25 16:32N 44°25' E 008°55'0 0.0
2016-Aug-25 15:32N 44°25' E 008°55'0 0.0
2016-Aug-25 14:32N 44°25' E 008°55'0 0.0
2016-Aug-25 13:08N 44°25' E 008°55'0 0.0
2016-Aug-25 12:29N 44°25' E 008°55'0 0.0
2016-Aug-25 11:32N 44°25' E 008°55'0 0.0
2016-Aug-25 10:32N 44°25' E 008°55'0 0.0
2016-Aug-25 09:32N 44°25' E 008°55'0 0.0
2016-Aug-25 08:32N 44°25' E 008°55'0 0.0
2016-Aug-25 07:26N 44°25' E 008°55'0 0.0
2016-Aug-25 06:32N 44°25' E 008°55'0 0.0
2016-Aug-25 04:32N 44°25' E 008°55'0 0.0
2016-Aug-25 03:32N 44°25' E 008°55'0 0.0
2016-Aug-25 02:32N 44°25' E 008°55'0 0.0
2016-Aug-25 01:32N 44°25' E 008°55'0 0.0
2016-Aug-25 00:32N 44°25' E 008°55'0 0.0
2016-Aug-24 23:32N 44°25' E 008°55'0 0.0
2016-Aug-24 22:32N 44°25' E 008°55'0 0.0
2016-Aug-24 21:32N 44°25' E 008°55'0 0.0
2016-Aug-24 20:26N 44°25' E 008°55'0 0.0
2016-Aug-24 19:32N 44°25' E 008°55'0 0.0
2016-Aug-24 18:32N 44°25' E 008°55'0 0.0
2016-Aug-24 17:32N 44°25' E 008°55'0 0.0
2016-Aug-24 16:32N 44°25' E 008°55'0 0.0
2016-Aug-24 15:32N 44°25' E 008°55'0 0.0
2016-Aug-24 14:32N 44°25' E 008°55'0 0.0
2016-Aug-24 13:29N 44°25' E 008°55'0 0.0
2016-Aug-24 12:32N 44°25' E 008°55'0 0.0
2016-Aug-24 11:32N 44°25' E 008°55'0 0.0
2016-Aug-24 10:23N 44°25' E 008°55'0 0.0
2016-Aug-24 09:26N 44°25' E 008°55'0 0.0
2016-Aug-24 08:26N 44°25' E 008°55'0 0.0
2016-Aug-24 07:32N 44°25' E 008°55'0 0.0
2016-Aug-24 06:32N 44°25' E 008°55'0 0.0
2016-Aug-24 04:32N 44°25' E 008°55'0 0.0
2016-Aug-24 03:29N 44°25' E 008°55'0 0.0
2016-Aug-24 02:32N 44°25' E 008°55'0 0.0
2016-Aug-24 01:32N 44°25' E 008°55'0 0.0
2016-Aug-24 00:32N 44°25' E 008°55'0 0.0
2016-Aug-23 23:32N 44°25' E 008°55'0 0.0
2016-Aug-23 22:32N 44°25' E 008°55'0 0.0
2016-Aug-23 21:32N 44°25' E 008°55'0 0.0
2016-Aug-23 20:32N 44°25' E 008°55'0 0.0
2016-Aug-23 19:26N 44°25' E 008°55'0 0.0
2016-Aug-23 18:32N 44°25' E 008°55'0 0.0
2016-Aug-23 17:32N 44°25' E 008°55'0 0.0
2016-Aug-23 16:32N 44°25' E 008°55'0 0.0
2016-Aug-23 15:29N 44°25' E 008°55'0 0.0
2016-Aug-23 14:29N 44°25' E 008°55'0 0.0
2016-Aug-23 13:29N 44°25' E 008°55'0 0.0
2016-Aug-23 12:32N 44°25' E 008°55'0 0.0
2016-Aug-23 11:32N 44°25' E 008°55'0 0.0
2016-Aug-23 10:32N 44°25' E 008°55'0 0.0
2016-Aug-23 09:32N 44°25' E 008°55'0 0.0
2016-Aug-23 08:32N 44°25' E 008°55'0 0.0
2016-Aug-23 07:32N 44°25' E 008°55'0 0.0
2016-Aug-23 06:32N 44°25' E 008°55'0 0.0
2016-Aug-23 05:23N 44°25' E 008°55'0 0.0
2016-Aug-23 04:29N 44°25' E 008°55'0 0.0
2016-Aug-23 03:29N 44°25' E 008°55'0 0.0
2016-Aug-23 02:29N 44°25' E 008°55'0 0.0
2016-Aug-23 01:29N 44°25' E 008°55'0 0.0
2016-Aug-23 00:29N 44°25' E 008°55'0 0.0
2016-Aug-22 23:32N 44°25' E 008°55'0 0.0
2016-Aug-22 22:32N 44°25' E 008°55'0 0.0
2016-Aug-22 21:32N 44°25' E 008°55'0 0.0
2016-Aug-22 20:32N 44°25' E 008°55'0 0.0
2016-Aug-22 19:32N 44°25' E 008°55'0 0.0
2016-Aug-22 18:32N 44°25' E 008°55'0 0.0
2016-Aug-22 17:32N 44°25' E 008°55'0 0.0
2016-Aug-22 16:32N 44°25' E 008°55'0 0.0
2016-Aug-22 15:26N 44°25' E 008°55'0 0.0
2016-Aug-22 14:23N 44°25' E 008°55'0 0.0
2016-Aug-22 13:26N 44°25' E 008°55'0 0.0
2016-Aug-22 12:26N 44°25' E 008°55'0 0.0
2016-Aug-22 11:29N 44°25' E 008°55'0 0.0
2016-Aug-22 10:32N 44°25' E 008°55'0 0.0
2016-Aug-22 09:31N 44°25' E 008°55'0 0.0
2016-Aug-22 08:31N 44°25' E 008°55'0 0.0
2016-Aug-22 07:31N 44°25' E 008°55'0 0.0
2016-Aug-22 06:31N 44°25' E 008°55'0 0.0
2016-Aug-22 05:31N 44°25' E 008°55'0 0.0
2016-Aug-22 04:22N 44°25' E 008°55'0 0.0
2016-Aug-22 03:28N 44°25' E 008°55'0 0.0
2016-Aug-22 02:25N 44°25' E 008°55'0 0.0
2016-Aug-22 01:28N 44°25' E 008°55'0 0.0
2016-Aug-22 00:31N 44°25' E 008°55'0 0.0
2016-Aug-21 23:28N 44°25' E 008°55'0 0.0
2016-Aug-21 22:28N 44°25' E 008°55'0 0.0
2016-Aug-21 21:31N 44°25' E 008°55'0 0.0
2016-Aug-21 20:31N 44°25' E 008°55'0 0.0
2016-Aug-21 19:31N 44°25' E 008°55'0 0.0
2016-Aug-21 18:31N 44°25' E 008°55'0 0.0
2016-Aug-21 17:31N 44°25' E 008°55'0 0.0
2016-Aug-21 16:22N 44°25' E 008°55'0 0.0
2016-Aug-21 15:31N 44°25' E 008°55'0 0.4
2016-Aug-21 14:33N 44°24' E 008°55'5 5.3
2016-Aug-21 13:33N 44°23' E 009°02'5 5.2
2016-Aug-21 12:33N 44°18' E 009°06'7 6.8
2016-Aug-21 11:33N 44°15' E 009°14'5 5.1
2016-Aug-21 10:33N 44°16' E 009°21'6 5.8
2016-Aug-21 09:33N 44°15' E 009°13'7 6.7
2016-Aug-21 08:33N 44°19' E 009°05'6 6.3
2016-Aug-21 07:33N 44°23' E 008°59'3 2.7
2016-Aug-21 06:30N 44°25' E 008°55'0 0.0
2016-Aug-21 05:27N 44°25' E 008°55'0 0.0
2016-Aug-21 04:30N 44°25' E 008°55'0 0.0
2016-Aug-21 03:30N 44°25' E 008°55'0 0.0
2016-Aug-21 02:30N 44°25' E 008°55'0 0.0
2016-Aug-21 01:33N 44°25' E 008°55'0 0.0
2016-Aug-21 00:33N 44°25' E 008°55'0 0.0
2016-Aug-20 23:33N 44°25' E 008°55'0 0.0
2016-Aug-20 22:33N 44°25' E 008°55'0 0.0
2016-Aug-20 21:33N 44°25' E 008°55'0 0.0
2016-Aug-20 20:30N 44°25' E 008°55'0 0.0
2016-Aug-20 19:30N 44°25' E 008°55'0 0.0
2016-Aug-20 18:24N 44°25' E 008°55'0 0.0
2016-Aug-20 17:30N 44°25' E 008°55'0 0.0
2016-Aug-20 16:30N 44°25' E 008°55'0 0.0
2016-Aug-20 15:27N 44°25' E 008°55'0 0.0
2016-Aug-20 14:30N 44°25' E 008°55'0 0.0
2016-Aug-20 13:30N 44°25' E 008°55'0 0.0
2016-Aug-20 12:30N 44°25' E 008°55'0 0.0
2016-Aug-20 11:33N 44°25' E 008°55'0 0.0
2016-Aug-20 10:33N 44°25' E 008°55'0 0.0
2016-Aug-20 09:33N 44°25' E 008°55'0 0.0
2016-Aug-20 08:33N 44°25' E 008°55'0 0.0
2016-Aug-20 07:33N 44°25' E 008°55'0 0.0
2016-Aug-20 06:33N 44°25' E 008°55'0 0.0
2016-Aug-20 05:33N 44°25' E 008°55'0 0.0
2016-Aug-20 04:33N 44°25' E 008°55'0 0.0
2016-Aug-20 03:30N 44°25' E 008°55'0 0.0
2016-Aug-20 02:27N 44°25' E 008°55'0 0.0
2016-Aug-20 01:30N 44°25' E 008°55'0 0.0
2016-Aug-20 00:27N 44°25' E 008°55'0 0.0
2016-Aug-19 23:30N 44°25' E 008°55'0 0.0
2016-Aug-19 22:30N 44°25' E 008°55'0 0.0
2016-Aug-19 21:30N 44°25' E 008°55'0 0.0
2016-Aug-19 20:33N 44°25' E 008°55'0 0.0
2016-Aug-19 19:33N 44°25' E 008°55'0 0.0
2016-Aug-19 18:33N 44°25' E 008°55'0 0.0
2016-Aug-19 17:33N 44°25' E 008°55'0 0.0
2016-Aug-19 16:33N 44°25' E 008°55'0 0.0
2016-Aug-19 15:33N 44°25' E 008°55'0 0.0
2016-Aug-19 14:30N 44°25' E 008°55'0 0.0
2016-Aug-19 13:30N 44°25' E 008°55'0 0.0
2016-Aug-19 12:33N 44°25' E 008°55'0 0.0
2016-Aug-19 11:30N 44°25' E 008°55'0 0.0
2016-Aug-19 10:33N 44°25' E 008°55'0 0.0
2016-Aug-19 09:21N 44°25' E 008°55'0 0.0
2016-Aug-19 08:33N 44°25' E 008°55'0 0.0
2016-Aug-19 07:33N 44°25' E 008°55'0 0.0
2016-Aug-19 06:33N 44°25' E 008°55'0 0.0
2016-Aug-19 04:24N 44°25' E 008°55'0 0.0
2016-Aug-19 03:27N 44°25' E 008°55'0 0.0
2016-Aug-19 02:27N 44°25' E 008°55'0 0.0
2016-Aug-19 01:30N 44°25' E 008°55'0 0.0
2016-Aug-19 00:30N 44°25' E 008°55'0 0.0
2016-Aug-18 23:30N 44°25' E 008°55'0 0.0
2016-Aug-18 22:33N 44°25' E 008°55'0 0.0
2016-Aug-18 21:33N 44°25' E 008°55'0 0.0
2016-Aug-18 20:33N 44°25' E 008°55'0 0.0
2016-Aug-18 19:33N 44°25' E 008°55'0 0.0
2016-Aug-18 18:33N 44°25' E 008°55'0 0.0
2016-Aug-18 17:24N 44°25' E 008°55'0 0.0
2016-Aug-18 16:33N 44°25' E 008°55'  

Dump ship's entire track history